This is the latest recevied weather packets stored in our database for station/object EA5SW-14. If no packets are shown the sender has not sent any weather packets the latest 10 day(s).
| Time | Temp. | Humidity | Pressure | Rain* | Wind** | Luminosity | Snow |
|---|---|---|---|---|---|---|---|
| 1777662163 | 14.44° C | 87% | 1016.5 hPa | 0 mm | - | - | - |
| 1777659159 | 15° C | 86% | 1016.1 hPa | 0 mm | - | - | - |
| 1777652568 | 17.22° C | 85% | 1015.3 hPa | 0.25 mm | - | - | - |
| 1777651354 | 17.22° C | 84% | 1015.2 hPa | 0.25 mm | - | - | - |
| 1777649566 | 16.67° C | 85% | 1014.9 hPa | 0 mm | - | - | - |
| 1777645369 | 17.78° C | 77% | 1015.3 hPa | 0 mm | - | - | - |
| 1777642391 | 19.44° C | 73% | 1015.4 hPa | 0 mm | - | - | - |
| 1777638743 | 19.44° C | 73% | 1015.4 hPa | 0 mm | - | - | - |
| 1777636369 | 19.44° C | 71% | 1015.4 hPa | 0 mm | - | - | - |
| 1777633392 | 17.78° C | 79% | 1015.7 hPa | 0 mm | - | - | - |
| 1777630958 | 17.78° C | 79% | 1016.1 hPa | 0 mm | - | - | - |
| 1777626766 | 17.22° C | 80% | 1015.9 hPa | 0 mm | - | - | - |
| 1777623783 | 15.56° C | 87% | 1015.4 hPa | 0 mm | - | - | - |
| 1777618377 | 13.33° C | 96% | 1014.6 hPa | 0 mm | - | - | - |
| 1777617767 | 13.33° C | 96% | 1014.7 hPa | 0 mm | - | - | - |
| 1777611141 | 13.33° C | 96% | 1013.6 hPa | 0 mm | - | - | - |
| 1777610592 | 13.33° C | 96% | 1013.7 hPa | 0 mm | - | - | - |
| 1777609982 | 13.33° C | 96% | 1013.6 hPa | 0 mm | - | - | - |
| 1777608158 | 13.33° C | 96% | 1013.3 hPa | 0 mm | - | - | - |
| 1777599809 | 13.33° C | 95% | 1013.6 hPa | 0.51 mm | - | - | - |
| 1777596791 | 13.33° C | 95% | 1013.6 hPa | 5.59 mm | - | - | - |
| 1777594967 | 13.89° C | 95% | 1014.2 hPa | 5.33 mm | - | - | - |
| 1777592593 | 13.89° C | 94% | 1014.3 hPa | 2.79 mm | - | - | - |
| 1777591380 | 13.89° C | 94% | 1014.1 hPa | 2.03 mm | - | - | - |
| 1777587182 | 14.44° C | 91% | 1013.3 hPa | 1.27 mm | - | - | - |
* Rain latest hour (hover to see other rain measurements)
** Current wind speed in m/s (hover to see current wind gust speed)